Time;durP1;ratioP1;P1;durP2;ratioP2;P2;SDS_P1;SDS_P2;PMS_P1;PMS_P2;Temp;Humidity;BMP_temperature;BMP_pressure;BME280_temperature;BME280_humidity;BME280_pressure;Samples;Min_cycle;Max_cycle;Signal;HPM_P1;HPM_P2
2022/08/01 00:01:07;;;;;;;2.53;1.70;;;;;;;;;;5038542;28;20235;-69
2022/08/01 00:03:35;;;;;;;2.25;1.83;;;;;;;;;;5038722;28;20321;-69
2022/08/01 00:06:01;;;;;;;3.42;1.73;;;;;;;;;;5038465;28;20586;-69
2022/08/01 00:08:27;;;;;;;5.97;2.22;;;;;;;;;;5038550;28;20198;-69
2022/08/01 00:10:53;;;;;;;1.83;1.73;;;;;;;;;;5038675;28;20294;-69
2022/08/01 00:13:20;;;;;;;1.92;1.83;;;;;;;;;;5038429;28;20550;-69
2022/08/01 00:15:46;;;;;;;3.00;1.77;;;;;;;;;;5038369;28;20243;-69
2022/08/01 00:18:12;;;;;;;2.08;1.98;;;;;;;;;;5038498;28;20498;-69
2022/08/01 00:20:40;;;;;;;2.10;1.80;;;;;;;;;;5038256;28;20222;-69
2022/08/01 00:23:06;;;;;;;2.03;1.92;;;;;;;;;;5038269;28;20219;-69
2022/08/01 00:25:32;;;;;;;2.33;1.90;;;;;;;;;;5038517;28;20243;-69
2022/08/01 00:27:58;;;;;;;1.77;1.55;;;;;;;;;;5041539;28;20197;-69
2022/08/01 00:30:25;;;;;;;2.55;2.00;;;;;;;;;;5041842;28;20202;-69
2022/08/01 00:32:51;;;;;;;1.90;1.80;;;;;;;;;;5041572;28;20482;-69
2022/08/01 00:35:17;;;;;;;1.88;1.85;;;;;;;;;;5041593;28;20198;-69
2022/08/01 00:37:45;;;;;;;2.47;1.85;;;;;;;;;;5041528;28;20641;-69
2022/08/01 00:40:11;;;;;;;2.42;2.20;;;;;;;;;;5041749;28;20292;-69
2022/08/01 00:42:37;;;;;;;2.08;1.98;;;;;;;;;;5041433;28;20235;-70
2022/08/01 00:45:04;;;;;;;2.55;2.20;;;;;;;;;;5041306;28;20201;-69
2022/08/01 00:47:30;;;;;;;2.00;1.90;;;;;;;;;;5041106;28;20212;-69
2022/08/01 00:49:56;;;;;;;1.85;1.75;;;;;;;;;;5041410;28;20220;-69
2022/08/01 00:52:23;;;;;;;2.22;2.00;;;;;;;;;;5041286;28;20201;-69
2022/08/01 00:54:50;;;;;;;2.35;1.95;;;;;;;;;;5041093;28;20243;-69
2022/08/01 00:57:17;;;;;;;2.75;1.83;;;;;;;;;;5040891;28;20514;-69
2022/08/01 00:59:43;;;;;;;3.45;1.63;;;;;;;;;;5041287;28;20221;-69
2022/08/01 01:02:09;;;;;;;2.30;2.10;;;;;;;;;;5041246;28;20225;-69
2022/08/01 01:04:35;;;;;;;2.60;2.05;;;;;;;;;;5041135;28;20210;-69
2022/08/01 01:07:07;;;;;;;1.63;1.58;;;;;;;;;;5040824;28;20198;-69
2022/08/01 01:09:35;;;;;;;2.17;1.95;;;;;;;;;;5040597;28;20194;-69
2022/08/01 01:12:12;;;;;;;2.17;1.95;;;;;;;;;;5041190;28;20197;-69
2022/08/01 01:14:44;;;;;;;2.03;1.92;;;;;;;;;;5041136;28;20299;-70
2022/08/01 01:17:12;;;;;;;1.77;1.67;;;;;;;;;;5040663;28;20243;-70
2022/08/01 01:19:42;;;;;;;2.72;1.80;;;;;;;;;;5040834;28;20225;-70
2022/08/01 01:22:23;;;;;;;3.05;1.77;;;;;;;;;;5041258;28;20213;-70
2022/08/01 01:24:58;;;;;;;1.70;1.60;;;;;;;;;;5041373;28;20198;-70
2022/08/01 01:27:29;;;;;;;2.33;2.10;;;;;;;;;;5040594;28;20197;-70
2022/08/01 01:29:57;;;;;;;2.25;2.10;;;;;;;;;;5040746;28;20360;-70
2022/08/01 01:32:27;;;;;;;1.83;1.73;;;;;;;;;;5040486;28;20210;-70
2022/08/01 01:34:55;;;;;;;2.58;1.88;;;;;;;;;;5040638;28;20197;-70
2022/08/01 01:37:22;;;;;;;2.55;2.08;;;;;;;;;;5040238;28;20197;-70
2022/08/01 01:39:50;;;;;;;4.85;1.88;;;;;;;;;;5040680;28;20278;-70
2022/08/01 01:42:17;;;;;;;2.55;2.08;;;;;;;;;;5040485;28;20198;-70
2022/08/01 01:44:44;;;;;;;2.70;1.90;;;;;;;;;;5040450;28;20393;-70
2022/08/01 01:47:12;;;;;;;1.95;1.67;;;;;;;;;;5040441;28;20197;-70
2022/08/01 01:49:39;;;;;;;2.13;2.03;;;;;;;;;;5040587;28;20369;-70
2022/08/01 01:52:07;;;;;;;1.80;1.80;;;;;;;;;;5040500;28;20202;-70
2022/08/01 01:54:34;;;;;;;1.92;1.83;;;;;;;;;;5040408;28;20205;-70
2022/08/01 01:57:02;;;;;;;2.05;1.90;;;;;;;;;;5040084;28;20198;-70
2022/08/01 01:59:30;;;;;;;2.65;1.70;;;;;;;;;;5040170;28;20247;-70
2022/08/01 02:01:57;;;;;;;2.22;2.00;;;;;;;;;;5040217;28;20243;-70
2022/08/01 02:04:26;;;;;;;1.95;1.90;;;;;;;;;;5040146;28;20202;-70
2022/08/01 02:06:53;;;;;;;1.88;1.77;;;;;;;;;;5040033;28;20198;-70
2022/08/01 02:09:20;;;;;;;3.05;2.33;;;;;;;;;;5040143;28;20448;-70
2022/08/01 02:11:48;;;;;;;2.20;1.98;;;;;;;;;;5040063;28;20201;-70
2022/08/01 02:14:14;;;;;;;2.45;2.25;;;;;;;;;;5040367;28;20255;-70
2022/08/01 02:16:42;;;;;;;3.33;2.10;;;;;;;;;;5039784;28;20380;-70
2022/08/01 02:19:09;;;;;;;2.17;2.00;;;;;;;;;;5040081;28;20205;-70
2022/08/01 02:21:39;;;;;;;2.13;2.00;;;;;;;;;;5039876;28;20268;-70
2022/08/01 02:24:09;;;;;;;3.05;2.25;;;;;;;;;;5040044;28;20376;-70
2022/08/01 02:26:39;;;;;;;2.45;2.35;;;;;;;;;;5039474;28;20205;-70
2022/08/01 02:29:07;;;;;;;2.85;2.40;;;;;;;;;;5039884;28;20250;-70
2022/08/01 02:31:36;;;;;;;2.03;1.92;;;;;;;;;;5039985;28;20243;-70
2022/08/01 02:34:05;;;;;;;4.40;2.50;;;;;;;;;;5039766;28;20205;-70
2022/08/01 02:36:33;;;;;;;2.28;2.10;;;;;;;;;;5039421;28;20509;-70
2022/08/01 02:39:02;;;;;;;3.35;2.15;;;;;;;;;;5039551;28;20198;-70
2022/08/01 02:41:29;;;;;;;2.13;2.05;;;;;;;;;;5039449;28;20225;-70
2022/08/01 02:43:58;;;;;;;1.95;1.85;;;;;;;;;;5039741;28;20198;-70
2022/08/01 02:46:28;;;;;;;3.25;2.10;;;;;;;;;;5039320;28;20198;-70
2022/08/01 02:48:56;;;;;;;2.25;1.83;;;;;;;;;;5038769;28;20202;-70
2022/08/01 02:51:24;;;;;;;2.47;2.33;;;;;;;;;;5039362;28;20230;-70
2022/08/01 02:53:51;;;;;;;3.08;2.10;;;;;;;;;;5039545;28;20374;-70
2022/08/01 02:56:20;;;;;;;3.63;2.00;;;;;;;;;;5039311;28;20198;-70
2022/08/01 02:58:47;;;;;;;4.07;2.42;;;;;;;;;;5039282;28;20201;-70
2022/08/01 03:01:14;;;;;;;2.72;2.13;;;;;;;;;;5039278;28;20218;-70
2022/08/01 03:03:41;;;;;;;3.28;2.60;;;;;;;;;;5039479;28;20201;-70
2022/08/01 03:06:07;;;;;;;3.00;2.42;;;;;;;;;;5038978;28;20225;-70
2022/08/01 03:08:35;;;;;;;2.58;2.40;;;;;;;;;;5039390;28;20197;-70
2022/08/01 03:11:03;;;;;;;2.40;2.17;;;;;;;;;;5039476;28;20198;-70
2022/08/01 03:13:31;;;;;;;2.33;2.33;;;;;;;;;;5039174;28;20198;-70
2022/08/01 03:15:58;;;;;;;3.78;3.47;;;;;;;;;;5039077;28;20201;-70
2022/08/01 03:18:25;;;;;;;3.00;2.78;;;;;;;;;;5039029;28;20202;-70
2022/08/01 03:20:53;;;;;;;2.53;2.38;;;;;;;;;;5039359;28;20226;-70
2022/08/01 03:23:21;;;;;;;3.85;2.65;;;;;;;;;;5039267;28;20201;-70
2022/08/01 03:25:48;;;;;;;3.47;2.08;;;;;;;;;;5039041;28;20202;-70
2022/08/01 03:28:16;;;;;;;2.70;2.60;;;;;;;;;;5038983;28;20204;-70
2022/08/01 03:30:45;;;;;;;2.53;2.42;;;;;;;;;;5039304;28;20194;-70
2022/08/01 03:33:11;;;;;;;2.35;2.25;;;;;;;;;;5038847;28;20268;-70
2022/08/01 03:35:40;;;;;;;3.83;2.33;;;;;;;;;;5039097;28;20219;-70
2022/08/01 03:38:10;;;;;;;2.47;2.33;;;;;;;;;;5038871;28;20201;-70
2022/08/01 03:40:37;;;;;;;9.18;2.63;;;;;;;;;;5038855;28;20221;-70
2022/08/01 03:43:06;;;;;;;2.92;2.53;;;;;;;;;;5038984;28;20473;-70
2022/08/01 03:45:36;;;;;;;3.13;2.92;;;;;;;;;;5038791;28;20269;-70
2022/08/01 03:48:06;;;;;;;2.47;2.38;;;;;;;;;;5038654;28;20243;-70
2022/08/01 03:50:33;;;;;;;2.83;2.72;;;;;;;;;;5038839;28;20202;-70
2022/08/01 03:53:00;;;;;;;2.97;2.67;;;;;;;;;;5038561;28;20213;-70
2022/08/01 03:55:27;;;;;;;2.90;2.80;;;;;;;;;;5038857;28;20218;-70
2022/08/01 03:57:53;;;;;;;2.85;2.65;;;;;;;;;;5038593;28;20203;-70
2022/08/01 04:00:20;;;;;;;3.15;2.90;;;;;;;;;;5039933;28;20540;-70
2022/08/01 04:02:46;;;;;;;3.28;2.83;;;;;;;;;;5042388;28;20205;-70
2022/08/01 04:05:14;;;;;;;2.75;2.55;;;;;;;;;;5042157;28;20218;-70
2022/08/01 04:07:42;;;;;;;2.67;2.58;;;;;;;;;;5042073;28;20198;-70
2022/08/01 04:10:09;;;;;;;3.55;2.70;;;;;;;;;;5041971;28;20205;-70
2022/08/01 04:12:35;;;;;;;4.30;2.50;;;;;;;;;;5041957;28;20202;-70
2022/08/01 04:15:01;;;;;;;3.30;2.25;;;;;;;;;;5042717;28;20202;-70
2022/08/01 04:17:28;;;;;;;2.72;2.53;;;;;;;;;;5041716;28;20251;-69
2022/08/01 04:19:54;;;;;;;2.95;2.70;;;;;;;;;;5042031;28;20205;-69
2022/08/01 04:22:21;;;;;;;2.70;2.60;;;;;;;;;;5042108;28;20202;-69
2022/08/01 04:24:50;;;;;;;3.00;2.80;;;;;;;;;;5041974;28;20210;-69
2022/08/01 04:27:19;;;;;;;4.13;2.83;;;;;;;;;;5042037;28;20198;-69
2022/08/01 04:29:47;;;;;;;3.03;2.83;;;;;;;;;;5042040;28;20235;-69
2022/08/01 04:32:13;;;;;;;3.58;3.28;;;;;;;;;;5041989;28;20239;-69
2022/08/01 04:34:42;;;;;;;3.80;3.15;;;;;;;;;;5041934;28;20446;-69
2022/08/01 04:37:09;;;;;;;3.03;2.80;;;;;;;;;;5041417;28;20214;-69
2022/08/01 04:39:37;;;;;;;3.17;2.97;;;;;;;;;;5041679;28;20198;-69
2022/08/01 04:42:05;;;;;;;3.42;3.10;;;;;;;;;;5041864;28;20234;-69
2022/08/01 04:44:32;;;;;;;2.80;2.70;;;;;;;;;;5041793;28;20285;-69
2022/08/01 04:46:59;;;;;;;2.90;2.58;;;;;;;;;;5041486;28;20197;-69
2022/08/01 04:49:25;;;;;;;3.15;2.65;;;;;;;;;;5041523;28;20224;-69
2022/08/01 04:51:57;;;;;;;3.03;2.83;;;;;;;;;;5041667;28;20517;-69
2022/08/01 04:54:23;;;;;;;2.97;2.83;;;;;;;;;;5041166;28;20206;-69
2022/08/01 04:56:51;;;;;;;7.88;3.20;;;;;;;;;;5041325;28;20242;-69
2022/08/01 05:02:01;;;;;;;3.05;2.65;;;;;;;;;;5041252;28;20288;-69
2022/08/01 05:04:27;;;;;;;2.95;2.75;;;;;;;;;;5041206;28;20198;-69
2022/08/01 05:06:53;;;;;;;3.85;2.92;;;;;;;;;;5040733;28;20258;-70
2022/08/01 05:09:20;;;;;;;3.00;2.90;;;;;;;;;;5040875;28;20198;-68
2022/08/01 05:11:46;;;;;;;3.40;2.95;;;;;;;;;;5039978;28;20194;-69
2022/08/01 05:14:14;;;;;;;2.78;2.67;;;;;;;;;;5040750;28;20198;-69
2022/08/01 05:16:41;;;;;;;3.28;2.85;;;;;;;;;;5040487;28;20197;-69
2022/08/01 05:19:08;;;;;;;3.15;2.95;;;;;;;;;;5040586;28;20265;-69
2022/08/01 05:21:35;;;;;;;3.92;2.83;;;;;;;;;;5040347;28;20572;-69
2022/08/01 05:24:02;;;;;;;5.57;2.55;;;;;;;;;;5040611;28;20478;-69
2022/08/01 05:26:28;;;;;;;3.55;2.97;;;;;;;;;;5040301;28;20198;-69
2022/08/01 05:28:54;;;;;;;2.67;2.58;;;;;;;;;;5040580;28;20243;-69
2022/08/01 05:31:22;;;;;;;3.15;2.70;;;;;;;;;;5040803;28;20232;-69
2022/08/01 05:33:48;;;;;;;5.25;3.03;;;;;;;;;;5040258;28;20198;-69
2022/08/01 05:36:14;;;;;;;2.97;2.80;;;;;;;;;;5040107;28;20201;-69
2022/08/01 05:38:41;;;;;;;3.15;2.95;;;;;;;;;;5040549;28;20294;-69
2022/08/01 05:41:07;;;;;;;3.67;3.10;;;;;;;;;;5040205;28;20222;-69
2022/08/01 05:43:33;;;;;;;3.08;2.85;;;;;;;;;;5040311;28;20416;-69
2022/08/01 05:46:00;;;;;;;4.97;4.50;;;;;;;;;;5040074;28;20198;-69
2022/08/01 05:48:28;;;;;;;2.80;2.70;;;;;;;;;;5039891;28;20193;-69
2022/08/01 05:50:54;;;;;;;3.33;2.90;;;;;;;;;;5040260;28;20198;-69
2022/08/01 05:53:21;;;;;;;3.90;2.97;;;;;;;;;;5040025;28;20210;-69
2022/08/01 05:55:47;;;;;;;4.53;2.75;;;;;;;;;;5040114;28;20202;-69
2022/08/01 05:58:13;;;;;;;3.00;2.80;;;;;;;;;;5039725;28;20197;-69
2022/08/01 06:00:40;;;;;;;3.33;2.78;;;;;;;;;;5039724;28;20322;-69
2022/08/01 06:03:06;;;;;;;7.00;3.00;;;;;;;;;;5039916;28;20198;-69
2022/08/01 06:05:33;;;;;;;4.95;2.83;;;;;;;;;;5040025;28;20226;-69
2022/08/01 06:08:00;;;;;;;3.35;2.92;;;;;;;;;;5039692;28;20250;-69
2022/08/01 06:10:26;;;;;;;3.53;2.90;;;;;;;;;;5031363;27;20213;-68
2022/08/01 06:12:52;;;;;;;3.50;3.30;;;;;;;;;;5028973;28;20521;-68
2022/08/01 06:15:18;;;;;;;3.70;2.90;;;;;;;;;;5033178;28;20401;-68
2022/08/01 06:17:45;;;;;;;3.53;2.75;;;;;;;;;;5049678;27;20270;-68
2022/08/01 06:20:11;;;;;;;5.75;3.28;;;;;;;;;;5033771;28;20217;-68
2022/08/01 06:22:39;;;;;;;3.67;2.90;;;;;;;;;;5033495;28;20229;-68
2022/08/01 06:25:06;;;;;;;3.90;3.10;;;;;;;;;;5033029;28;20214;-68
2022/08/01 06:27:34;;;;;;;3.03;2.92;;;;;;;;;;5033782;28;20209;-68
2022/08/01 06:30:00;;;;;;;4.05;3.45;;;;;;;;;;5033466;28;20231;-67
2022/08/01 06:32:27;;;;;;;2.90;2.63;;;;;;;;;;5033091;28;20525;-60
2022/08/01 06:34:53;;;;;;;2.55;2.42;;;;;;;;;;5044834;27;20210;-60
2022/08/01 06:37:19;;;;;;;7.10;2.50;;;;;;;;;;5031624;28;20214;-60
2022/08/01 06:39:48;;;;;;;4.90;2.60;;;;;;;;;;5031502;28;20312;-60
2022/08/01 06:42:14;;;;;;;3.33;2.80;;;;;;;;;;5031305;28;20252;-60
2022/08/01 06:44:41;;;;;;;2.65;2.55;;;;;;;;;;5032163;28;20262;-60
2022/08/01 06:47:07;;;;;;;4.95;2.45;;;;;;;;;;5031984;28;20259;-60
2022/08/01 06:49:33;;;;;;;6.28;2.75;;;;;;;;;;5029651;28;20213;-61
2022/08/01 06:51:59;;;;;;;3.72;2.65;;;;;;;;;;5031148;28;20366;-60
2022/08/01 06:54:26;;;;;;;3.35;2.30;;;;;;;;;;5031784;28;20417;-61
2022/08/01 06:56:53;;;;;;;3.20;3.00;;;;;;;;;;5031601;28;20220;-61
2022/08/01 06:59:20;;;;;;;5.85;2.70;;;;;;;;;;5031243;28;20222;-60
2022/08/01 07:01:46;;;;;;;2.70;2.13;;;;;;;;;;5031045;28;20341;-61
2022/08/01 07:04:12;;;;;;;2.15;2.05;;;;;;;;;;5031340;28;20213;-62
2022/08/01 07:06:38;;;;;;;4.15;3.67;;;;;;;;;;5030706;28;20244;-60
2022/08/01 07:09:04;;;;;;;2.65;2.45;;;;;;;;;;5030478;28;20494;-60
2022/08/01 07:11:31;;;;;;;2.33;2.22;;;;;;;;;;5030731;28;20201;-61
2022/08/01 07:13:58;;;;;;;2.67;2.47;;;;;;;;;;5031047;28;20269;-61
2022/08/01 07:16:25;;;;;;;6.82;2.10;;;;;;;;;;5030659;28;20368;-61
2022/08/01 07:18:51;;;;;;;2.10;1.90;;;;;;;;;;5030158;28;20238;-62
2022/08/01 07:21:17;;;;;;;2.08;1.98;;;;;;;;;;5030858;28;20236;-61
2022/08/01 07:23:44;;;;;;;3.53;2.20;;;;;;;;;;5030702;28;20217;-61
2022/08/01 07:26:10;;;;;;;2.10;1.98;;;;;;;;;;5030754;28;20217;-60
2022/08/01 07:28:36;;;;;;;3.50;2.10;;;;;;;;;;5029783;28;20218;-60
2022/08/01 07:31:04;;;;;;;4.57;2.03;;;;;;;;;;5030520;28;20254;-61
2022/08/01 07:33:30;;;;;;;2.70;2.22;;;;;;;;;;5030341;28;20220;-61
2022/08/01 07:35:56;;;;;;;6.43;2.22;;;;;;;;;;5032850;28;20249;-61
2022/08/01 07:38:22;;;;;;;5.15;4.00;;;;;;;;;;5033875;28;20250;-61
2022/08/01 07:40:49;;;;;;;4.30;2.20;;;;;;;;;;5033290;28;20258;-61
2022/08/01 07:43:15;;;;;;;2.60;2.03;;;;;;;;;;5033197;28;20233;-61
2022/08/01 07:45:41;;;;;;;1.80;1.70;;;;;;;;;;5033855;28;20579;-61
2022/08/01 07:48:09;;;;;;;3.33;1.95;;;;;;;;;;5033135;28;20220;-61
2022/08/01 07:50:35;;;;;;;1.67;1.50;;;;;;;;;;5033092;28;20279;-60
2022/08/01 07:53:02;;;;;;;1.92;1.90;;;;;;;;;;5033916;28;20221;-61
2022/08/01 07:55:28;;;;;;;2.15;1.30;;;;;;;;;;5033818;28;20217;-61
2022/08/01 07:57:54;;;;;;;1.50;1.40;;;;;;;;;;5034691;28;20220;-61
2022/08/01 08:00:21;;;;;;;2.60;1.30;;;;;;;;;;5033000;28;20214;-61
2022/08/01 08:02:47;;;;;;;2.25;1.73;;;;;;;;;;5033456;28;20549;-61
2022/08/01 08:05:14;;;;;;;1.50;1.40;;;;;;;;;;5033514;28;20290;-61
2022/08/01 08:07:41;;;;;;;1.65;1.27;;;;;;;;;;5033065;28;20460;-61
2022/08/01 08:10:07;;;;;;;2.30;1.55;;;;;;;;;;5032880;28;20472;-60
2022/08/01 08:12:34;;;;;;;1.58;1.48;;;;;;;;;;5034227;28;20213;-61
2022/08/01 08:15:00;;;;;;;1.70;1.60;;;;;;;;;;5033134;28;20213;-60
2022/08/01 08:17:27;;;;;;;3.15;1.23;;;;;;;;;;5033888;28;20247;-61
2022/08/01 08:19:53;;;;;;;1.70;1.50;;;;;;;;;;5034019;28;20212;-61
2022/08/01 08:22:21;;;;;;;1.52;1.42;;;;;;;;;;5032406;28;20232;-61
2022/08/01 08:24:47;;;;;;;1.65;1.60;;;;;;;;;;5033754;28;20197;-61
2022/08/01 08:27:14;;;;;;;1.50;1.40;;;;;;;;;;5032711;28;20545;-61
2022/08/01 08:29:40;;;;;;;1.55;1.55;;;;;;;;;;5033433;28;20213;-61
2022/08/01 08:32:07;;;;;;;1.48;1.48;;;;;;;;;;5032739;28;20215;-61
2022/08/01 08:34:33;;;;;;;1.73;1.63;;;;;;;;;;5033850;28;20217;-61
2022/08/01 08:37:00;;;;;;;3.03;1.50;;;;;;;;;;5032807;28;20217;-61
2022/08/01 08:39:29;;;;;;;1.45;1.35;;;;;;;;;;5052853;27;20206;-62
2022/08/01 08:41:55;;;;;;;2.15;1.70;;;;;;;;;;5029045;28;20466;-62
2022/08/01 08:44:21;;;;;;;1.73;1.60;;;;;;;;;;5034160;28;20221;-61
2022/08/01 08:46:48;;;;;;;1.85;1.48;;;;;;;;;;5049739;28;20213;-61
2022/08/01 08:49:16;;;;;;;2.35;1.20;;;;;;;;;;5034273;28;20537;-61
2022/08/01 08:51:44;;;;;;;1.73;1.52;;;;;;;;;;5033464;28;20216;-61
2022/08/01 08:54:12;;;;;;;1.77;1.27;;;;;;;;;;5033163;28;20247;-61
2022/08/01 08:56:41;;;;;;;2.05;1.90;;;;;;;;;;5033130;28;20213;-61
2022/08/01 08:59:07;;;;;;;1.77;1.65;;;;;;;;;;5033594;28;20213;-61
2022/08/01 09:01:34;;;;;;;1.60;1.50;;;;;;;;;;5032595;28;20205;-61
2022/08/01 09:04:01;;;;;;;2.13;1.90;;;;;;;;;;5032724;27;20209;-62
2022/08/01 09:06:28;;;;;;;2.97;1.65;;;;;;;;;;5051743;27;20262;-60
2022/08/01 09:08:55;;;;;;;2.15;1.60;;;;;;;;;;5033315;28;20213;-61
2022/08/01 09:11:21;;;;;;;1.80;1.70;;;;;;;;;;5032780;28;20213;-61
2022/08/01 09:14:02;;;;;;;3.60;2.00;;;;;;;;;;5032947;28;20221;-61
2022/08/01 09:16:30;;;;;;;5.55;2.22;;;;;;;;;;5029499;28;20209;-60
2022/08/01 09:19:07;;;;;;;2.40;2.20;;;;;;;;;;5033030;28;20258;-61
2022/08/01 09:21:33;;;;;;;2.22;2.13;;;;;;;;;;5030008;28;20217;-61
2022/08/01 09:24:02;;;;;;;2.50;2.40;;;;;;;;;;5031985;28;20258;-61
2022/08/01 09:26:29;;;;;;;2.40;2.30;;;;;;;;;;5032871;28;20258;-62
2022/08/01 09:28:56;;;;;;;3.45;2.60;;;;;;;;;;5033437;28;20258;-61
2022/08/01 09:31:22;;;;;;;2.78;2.60;;;;;;;;;;5031917;28;20213;-61
2022/08/01 09:33:53;;;;;;;4.28;2.63;;;;;;;;;;5032627;28;20266;-62
2022/08/01 09:36:20;;;;;;;2.95;2.60;;;;;;;;;;5031945;28;20213;-61
2022/08/01 09:38:46;;;;;;;3.03;2.75;;;;;;;;;;5032400;28;20254;-61
2022/08/01 09:41:13;;;;;;;3.92;2.88;;;;;;;;;;5032404;28;20213;-61
2022/08/01 09:43:39;;;;;;;2.92;2.70;;;;;;;;;;5032231;28;20431;-61
2022/08/01 09:46:09;;;;;;;3.58;2.90;;;;;;;;;;5032097;28;20452;-61
2022/08/01 09:48:36;;;;;;;2.47;2.38;;;;;;;;;;5032558;28;20217;-61
2022/08/01 09:51:04;;;;;;;4.80;2.72;;;;;;;;;;5032370;28;20248;-61
2022/08/01 09:53:40;;;;;;;3.80;2.90;;;;;;;;;;5032597;28;20258;-62
2022/08/01 09:56:10;;;;;;;3.20;2.70;;;;;;;;;;5032198;28;20217;-62
2022/08/01 09:58:49;;;;;;;3.42;3.05;;;;;;;;;;5031745;28;20403;-61
2022/08/01 10:01:15;;;;;;;3.20;2.85;;;;;;;;;;5031702;28;20254;-61
2022/08/01 10:03:41;;;;;;;3.22;3.03;;;;;;;;;;5032008;28;20256;-61
2022/08/01 10:06:21;;;;;;;3.40;3.22;;;;;;;;;;5031506;28;20398;-61
2022/08/01 10:08:47;;;;;;;2.92;2.65;;;;;;;;;;5031785;28;20410;-61
2022/08/01 10:11:13;;;;;;;3.03;2.78;;;;;;;;;;5027744;28;20213;-62
2022/08/01 10:13:40;;;;;;;3.08;2.70;;;;;;;;;;5032072;28;20210;-62
2022/08/01 10:16:06;;;;;;;4.05;3.13;;;;;;;;;;5031156;28;20390;-61
2022/08/01 10:18:33;;;;;;;4.15;3.60;;;;;;;;;;5032677;28;20528;-61
2022/08/01 10:21:00;;;;;;;3.80;3.50;;;;;;;;;;5031826;28;20245;-61
2022/08/01 10:23:31;;;;;;;3.95;3.55;;;;;;;;;;5032697;28;20228;-61
2022/08/01 10:25:58;;;;;;;4.35;3.75;;;;;;;;;;5032515;28;20227;-61
2022/08/01 10:28:26;;;;;;;3.92;3.50;;;;;;;;;;5032090;28;20486;-71
2022/08/01 10:30:53;;;;;;;4.70;4.20;;;;;;;;;;5032050;28;20254;-71
2022/08/01 10:33:19;;;;;;;4.68;3.50;;;;;;;;;;5031368;28;20738;-71
2022/08/01 10:35:46;;;;;;;4.70;3.42;;;;;;;;;;5031499;28;20209;-71
2022/08/01 10:38:12;;;;;;;7.22;4.32;;;;;;;;;;5030839;28;20212;-71
2022/08/01 10:40:40;;;;;;;3.70;3.47;;;;;;;;;;5031890;28;20220;-71
2022/08/01 10:43:07;;;;;;;4.40;3.50;;;;;;;;;;5031087;28;20564;-72
2022/08/01 10:45:33;;;;;;;3.70;3.20;;;;;;;;;;5031789;28;20214;-71
2022/08/01 10:48:03;;;;;;;3.70;3.38;;;;;;;;;;5030730;28;20219;-72
2022/08/01 10:50:32;;;;;;;4.10;3.38;;;;;;;;;;5031110;28;20220;-71
2022/08/01 10:53:04;;;;;;;3.97;3.20;;;;;;;;;;5031600;28;20262;-71
2022/08/01 10:55:45;;;;;;;5.63;3.35;;;;;;;;;;5031215;28;20222;-71
2022/08/01 10:58:13;;;;;;;4.47;3.67;;;;;;;;;;5030251;28;21103;-71
2022/08/01 11:00:39;;;;;;;4.03;3.28;;;;;;;;;;5031771;28;20373;-71
2022/08/01 11:03:05;;;;;;;3.38;3.28;;;;;;;;;;5030716;28;20466;-71
2022/08/01 11:05:32;;;;;;;5.60;3.38;;;;;;;;;;5031073;28;20221;-71
2022/08/01 11:08:01;;;;;;;3.90;2.92;;;;;;;;;;5031366;28;20217;-71
2022/08/01 11:10:35;;;;;;;3.35;2.92;;;;;;;;;;5030700;28;20217;-71
2022/08/01 11:13:05;;;;;;;2.72;2.20;;;;;;;;;;5028403;28;20555;-71
2022/08/01 11:15:33;;;;;;;2.92;2.78;;;;;;;;;;5031347;28;20213;-71
2022/08/01 11:18:00;;;;;;;2.80;2.55;;;;;;;;;;5030972;28;20205;-71
2022/08/01 11:20:29;;;;;;;2.60;2.40;;;;;;;;;;5027143;28;20544;-71
2022/08/01 11:23:27;;;;;;;4.57;2.50;;;;;;;;;;5031739;28;20235;-71
2022/08/01 11:26:20;;;;;;;5.07;1.90;;;;;;;;;;5031074;28;20221;-71
2022/08/01 11:29:07;;;;;;;4.18;1.90;;;;;;;;;;5030892;28;20407;-71
2022/08/01 11:31:34;;;;;;;3.13;2.17;;;;;;;;;;5026852;28;20594;-71
2022/08/01 11:34:01;;;;;;;4.32;1.90;;;;;;;;;;5030700;28;20266;-71
2022/08/01 11:36:27;;;;;;;3.97;2.30;;;;;;;;;;5031241;28;20213;-72
2022/08/01 11:39:13;;;;;;;2.67;2.03;;;;;;;;;;5030965;28;20217;-71
2022/08/01 11:41:39;;;;;;;3.35;2.10;;;;;;;;;;5028600;28;20213;-71
2022/08/01 11:44:06;;;;;;;2.05;2.00;;;;;;;;;;5031356;28;20233;-71
2022/08/01 11:46:54;;;;;;;2.22;1.90;;;;;;;;;;5030571;28;20209;-72
2022/08/01 11:49:34;;;;;;;2.17;1.65;;;;;;;;;;5030925;28;20217;-71
2022/08/01 11:52:01;;;;;;;1.85;1.70;;;;;;;;;;5030690;28;20257;-72
2022/08/01 11:54:28;;;;;;;2.13;2.03;;;;;;;;;;5031396;28;20228;-71
2022/08/01 11:56:56;;;;;;;1.98;1.98;;;;;;;;;;5031005;28;20621;-71
2022/08/01 11:59:22;;;;;;;1.80;1.70;;;;;;;;;;5030741;28;20395;-71
2022/08/01 12:01:48;;;;;;;2.20;2.08;;;;;;;;;;5029638;28;20278;-71
2022/08/01 12:04:16;;;;;;;3.17;1.92;;;;;;;;;;5030686;28;20237;-71
2022/08/01 12:06:42;;;;;;;1.90;1.80;;;;;;;;;;5030481;28;20307;-71
2022/08/01 12:09:26;;;;;;;4.10;1.92;;;;;;;;;;5030432;28;20213;-71
2022/08/01 12:11:53;;;;;;;1.95;1.70;;;;;;;;;;5029497;28;20213;-71
2022/08/01 12:14:20;;;;;;;2.00;1.90;;;;;;;;;;5030662;28;20214;-71
2022/08/01 12:16:53;;;;;;;1.73;1.63;;;;;;;;;;5030119;28;20220;-71
2022/08/01 12:19:22;;;;;;;1.70;1.60;;;;;;;;;;5030189;28;20313;-71
2022/08/01 12:22:04;;;;;;;2.10;2.00;;;;;;;;;;5031553;28;20590;-71
2022/08/01 12:24:30;;;;;;;1.92;1.83;;;;;;;;;;5034329;28;20249;-71
2022/08/01 12:26:56;;;;;;;1.95;1.95;;;;;;;;;;5033681;28;20209;-71
2022/08/01 12:29:31;;;;;;;1.98;1.90;;;;;;;;;;5033720;28;20213;-71
2022/08/01 12:31:58;;;;;;;2.65;1.60;;;;;;;;;;5030748;28;20212;-71
2022/08/01 12:34:29;;;;;;;1.60;1.60;;;;;;;;;;5033502;28;20224;-71
2022/08/01 12:36:55;;;;;;;1.85;1.75;;;;;;;;;;5033787;28;20211;-71
2022/08/01 12:39:22;;;;;;;2.00;1.85;;;;;;;;;;5033328;28;20257;-71
2022/08/01 12:41:48;;;;;;;2.10;2.00;;;;;;;;;;5032545;28;20213;-71
2022/08/01 12:44:16;;;;;;;2.83;1.60;;;;;;;;;;5033083;28;20418;-72
2022/08/01 12:46:42;;;;;;;3.50;1.27;;;;;;;;;;5033176;28;20266;-71
2022/08/01 12:49:08;;;;;;;1.55;1.45;;;;;;;;;;5033393;28;20325;-71
2022/08/01 12:51:36;;;;;;;3.80;1.58;;;;;;;;;;5033007;28;20556;-71
2022/08/01 12:54:04;;;;;;;1.92;1.90;;;;;;;;;;5032235;28;20217;-71
2022/08/01 12:56:33;;;;;;;2.88;1.90;;;;;;;;;;5033281;28;20406;-71
2022/08/01 12:59:00;;;;;;;4.57;1.70;;;;;;;;;;5033539;28;20255;-71
2022/08/01 13:01:27;;;;;;;5.30;1.90;;;;;;;;;;5032946;28;20213;-71
2022/08/01 13:04:00;;;;;;;3.25;1.88;;;;;;;;;;5032799;28;20320;-71
2022/08/01 13:06:29;;;;;;;1.67;1.67;;;;;;;;;;5051653;27;20225;-71
2022/08/01 13:09:05;;;;;;;1.73;1.63;;;;;;;;;;5033277;28;20221;-71
2022/08/01 13:11:31;;;;;;;2.67;1.73;;;;;;;;;;5032473;28;20213;-71
2022/08/01 13:13:57;;;;;;;2.08;1.98;;;;;;;;;;5033618;28;20528;-70
2022/08/01 13:16:25;;;;;;;1.85;1.75;;;;;;;;;;5040197;27;20451;-70
2022/08/01 13:18:51;;;;;;;1.90;1.80;;;;;;;;;;5033376;28;20213;-71
2022/08/01 13:21:18;;;;;;;2.67;1.85;;;;;;;;;;5032796;28;20478;-70
2022/08/01 13:23:59;;;;;;;1.42;1.33;;;;;;;;;;5033147;28;20233;-71
2022/08/01 13:26:39;;;;;;;2.20;1.33;;;;;;;;;;5028991;28;20521;-70
2022/08/01 13:29:07;;;;;;;4.85;1.38;;;;;;;;;;5044384;27;20326;-71
2022/08/01 13:31:34;;;;;;;1.48;1.40;;;;;;;;;;5032485;27;20282;-71
2022/08/01 13:34:00;;;;;;;2.78;1.70;;;;;;;;;;5031978;28;20236;-70
2022/08/01 13:36:28;;;;;;;2.13;1.48;;;;;;;;;;5032263;28;20278;-70
2022/08/01 13:41:39;;;;;;;2.60;1.50;;;;;;;;;;5031862;28;20548;-70
2022/08/01 13:44:08;;;;;;;1.35;1.35;;;;;;;;;;5032438;28;20256;-71
2022/08/01 13:46:34;;;;;;;1.50;1.50;;;;;;;;;;5031339;28;20527;-71
2022/08/01 13:49:01;;;;;;;1.67;1.58;;;;;;;;;;5032771;28;20545;-71
2022/08/01 13:51:27;;;;;;;4.72;1.63;;;;;;;;;;5032295;28;20577;-71
2022/08/01 13:53:53;;;;;;;1.65;1.55;;;;;;;;;;5031991;28;20223;-71
2022/08/01 13:56:19;;;;;;;1.60;1.50;;;;;;;;;;5032250;28;20221;-71
2022/08/01 13:58:47;;;;;;;2.40;1.63;;;;;;;;;;5032370;28;20213;-70
2022/08/01 14:01:13;;;;;;;5.60;1.30;;;;;;;;;;5031916;28;20216;-71
2022/08/01 14:03:40;;;;;;;4.03;1.70;;;;;;;;;;5032677;28;20229;-71
2022/08/01 14:06:06;;;;;;;1.55;1.45;;;;;;;;;;5032066;28;20547;-70
2022/08/01 14:08:33;;;;;;;4.70;1.65;;;;;;;;;;5031770;28;20213;-71
2022/08/01 14:10:59;;;;;;;1.92;1.60;;;;;;;;;;5032354;28;20209;-71
2022/08/01 14:13:26;;;;;;;1.60;1.50;;;;;;;;;;5032087;28;20210;-70
2022/08/01 14:15:53;;;;;;;1.60;1.50;;;;;;;;;;5032394;28;20213;-70
2022/08/01 14:18:19;;;;;;;1.48;1.48;;;;;;;;;;5031204;28;20213;-70
2022/08/01 14:20:46;;;;;;;4.53;1.77;;;;;;;;;;5031732;28;20217;-70
2022/08/01 14:23:12;;;;;;;6.68;1.90;;;;;;;;;;5031514;28;20217;-71
2022/08/01 14:25:39;;;;;;;1.60;1.30;;;;;;;;;;5031515;28;20251;-71
2022/08/01 14:28:05;;;;;;;4.40;1.60;;;;;;;;;;5031402;28;20217;-70
2022/08/01 14:30:32;;;;;;;4.35;1.40;;;;;;;;;;5032520;28;20213;-70
2022/08/01 14:32:59;;;;;;;3.55;1.60;;;;;;;;;;5031807;28;20213;-71
2022/08/01 14:35:26;;;;;;;1.52;1.48;;;;;;;;;;5028567;28;20477;-71
2022/08/01 14:37:52;;;;;;;2.80;1.33;;;;;;;;;;5030814;28;20217;-71
2022/08/01 14:40:18;;;;;;;1.52;1.42;;;;;;;;;;5031458;28;20349;-71
2022/08/01 14:42:45;;;;;;;1.83;1.50;;;;;;;;;;5031471;28;20402;-71
2022/08/01 14:45:12;;;;;;;2.05;1.30;;;;;;;;;;5032882;27;20221;-71
2022/08/01 14:47:39;;;;;;;1.50;1.50;;;;;;;;;;5030986;28;20266;-71
2022/08/01 14:50:08;;;;;;;2.85;1.27;;;;;;;;;;5031385;28;20206;-70
2022/08/01 14:52:34;;;;;;;1.33;1.33;;;;;;;;;;5030815;28;20209;-71